Time;durP1;ratioP1;P1;durP2;ratioP2;P2;SDS_P1;SDS_P2;PMS_P1;PMS_P2;Temp;Humidity;BMP_temperature;BMP_pressure;BME280_temperature;BME280_humidity;BME280_pressure;Samples;Min_cycle;Max_cycle;Signal;HPM_P1;HPM_P2
2023/10/17 00:00:59;;;;;;;3.88;3.58;;;3.30;99.90;;;;;;5051013;28;20221;-65
2023/10/17 00:03:26;;;;;;;3.13;2.85;;;3.30;99.90;;;;;;5051109;28;20210;-65
2023/10/17 00:05:55;;;;;;;3.42;3.08;;;3.30;99.90;;;;;;5051336;28;20232;-65
2023/10/17 00:08:22;;;;;;;4.72;3.40;;;3.30;99.90;;;;;;5050866;28;20220;-65
2023/10/17 00:10:49;;;;;;;3.83;3.42;;;3.30;99.90;;;;;;5051170;28;20798;-65
2023/10/17 00:13:25;;;;;;;4.43;3.90;;;3.30;99.90;;;;;;5051369;28;20212;-65
2023/10/17 00:15:52;;;;;;;4.22;3.20;;;3.20;99.90;;;;;;5051299;28;20206;-64
2023/10/17 00:18:25;;;;;;;3.78;3.47;;;3.20;99.90;;;;;;5050838;28;20679;-65
2023/10/17 00:20:53;;;;;;;4.20;3.80;;;3.20;99.90;;;;;;5050670;28;20621;-65
2023/10/17 00:23:21;;;;;;;7.03;3.67;;;3.30;99.90;;;;;;5050981;28;20448;-65
2023/10/17 00:25:49;;;;;;;4.35;3.13;;;3.30;99.90;;;;;;5050646;28;20280;-65
2023/10/17 00:28:20;;;;;;;3.47;3.17;;;3.20;99.90;;;;;;5050585;28;20211;-65
2023/10/17 00:30:48;;;;;;;3.72;3.42;;;3.20;99.90;;;;;;5051003;28;20225;-64
2023/10/17 00:33:20;;;;;;;3.43;3.13;;;3.10;99.90;;;;;;5050736;28;20694;-65
2023/10/17 00:35:48;;;;;;;3.72;3.47;;;3.20;99.90;;;;;;5050718;28;20443;-65
2023/10/17 00:38:16;;;;;;;3.72;3.25;;;3.20;99.90;;;;;;5050545;28;20683;-65
2023/10/17 00:40:49;;;;;;;4.45;3.30;;;3.10;99.90;;;;;;5050856;28;20711;-65
2023/10/17 00:43:16;;;;;;;3.88;3.58;;;3.10;99.90;;;;;;5050942;28;20204;-65
2023/10/17 00:45:45;;;;;;;3.70;3.45;;;3.00;99.90;;;;;;5050409;28;20291;-64
2023/10/17 00:48:18;;;;;;;3.10;2.90;;;3.00;99.90;;;;;;5050364;28;20639;-66
2023/10/17 00:50:47;;;;;;;5.13;3.95;;;3.00;99.90;;;;;;5050895;28;20257;-66
2023/10/17 00:53:16;;;;;;;5.30;3.50;;;2.90;99.90;;;;;;5050776;28;20787;-66
2023/10/17 00:55:50;;;;;;;4.65;3.40;;;2.90;99.90;;;;;;5050822;28;20198;-66
2023/10/17 00:58:19;;;;;;;5.07;4.57;;;2.80;99.90;;;;;;5050388;28;20210;-66
2023/10/17 01:00:49;;;;;;;3.70;3.40;;;2.80;99.90;;;;;;5050482;28;20229;-66
2023/10/17 01:03:16;;;;;;;3.22;3.03;;;2.80;99.90;;;;;;5050653;28;20212;-66
2023/10/17 01:05:57;;;;;;;4.43;3.40;;;2.80;99.90;;;;;;5050612;28;20666;-66
2023/10/17 01:08:36;;;;;;;3.55;3.30;;;2.70;99.90;;;;;;5050465;28;20603;-67
2023/10/17 01:11:08;;;;;;;7.28;3.65;;;2.70;99.90;;;;;;5050781;28;20231;-66
2023/10/17 01:13:37;;;;;;;4.30;3.63;;;2.70;99.90;;;;;;5053292;28;20703;-66
2023/10/17 01:16:10;;;;;;;4.38;3.97;;;2.70;99.90;;;;;;5054448;28;20210;-67
2023/10/17 01:18:36;;;;;;;5.15;3.92;;;2.70;99.90;;;;;;5054329;28;20214;-66
2023/10/17 01:21:04;;;;;;;3.60;3.25;;;2.70;99.90;;;;;;5053945;28;20326;-66
2023/10/17 01:23:33;;;;;;;3.70;3.40;;;2.60;99.90;;;;;;5054529;28;20202;-66
2023/10/17 01:26:05;;;;;;;4.10;3.70;;;2.60;99.90;;;;;;5053403;28;20217;-66
2023/10/17 01:28:32;;;;;;;3.50;3.30;;;2.60;99.90;;;;;;5053766;28;20632;-66
2023/10/17 01:31:01;;;;;;;4.30;3.88;;;2.60;99.90;;;;;;5052267;28;20222;-66
2023/10/17 01:33:29;;;;;;;5.85;4.43;;;2.60;99.90;;;;;;5053777;28;20208;-66
2023/10/17 01:35:58;;;;;;;4.85;4.45;;;2.50;99.90;;;;;;5054105;28;20299;-66
2023/10/17 01:38:26;;;;;;;4.60;4.00;;;2.50;99.90;;;;;;5053896;28;20209;-67
2023/10/17 01:40:54;;;;;;;4.20;3.45;;;2.60;99.90;;;;;;5053746;28;20260;-66
2023/10/17 01:43:22;;;;;;;3.80;3.38;;;2.60;99.90;;;;;;5053951;28;20206;-66
2023/10/17 01:45:50;;;;;;;4.05;3.75;;;2.50;99.90;;;;;;5053912;28;20229;-67
2023/10/17 01:48:21;;;;;;;6.95;4.60;;;2.50;99.90;;;;;;5053364;28;20356;-67
2023/10/17 01:50:48;;;;;;;4.63;4.22;;;2.50;99.90;;;;;;5053903;28;20336;-66
2023/10/17 01:53:15;;;;;;;4.20;3.90;;;2.40;99.90;;;;;;5033884;28;20207;-67
2023/10/17 01:55:48;;;;;;;6.20;4.35;;;2.30;99.90;;;;;;5039844;28;20206;-66
2023/10/17 01:58:18;;;;;;;5.28;3.65;;;2.30;99.90;;;;;;5051384;28;20225;-67
2023/10/17 02:00:46;;;;;;;3.50;2.70;;;2.30;99.90;;;;;;5052830;28;20263;-66
2023/10/17 02:03:16;;;;;;;3.70;3.40;;;2.30;99.90;;;;;;5053927;28;20296;-66
2023/10/17 02:05:44;;;;;;;4.03;3.20;;;2.30;99.90;;;;;;5053321;28;20601;-66
2023/10/17 02:08:11;;;;;;;6.07;3.95;;;2.30;99.90;;;;;;5053336;28;20444;-67
2023/10/17 02:10:38;;;;;;;6.22;3.92;;;2.30;99.90;;;;;;5053368;28;20235;-66
2023/10/17 02:13:07;;;;;;;4.63;3.20;;;2.30;99.90;;;;;;5053233;28;20206;-66
2023/10/17 02:15:34;;;;;;;4.65;4.18;;;2.20;99.90;;;;;;5053548;28;20201;-66
2023/10/17 02:18:12;;;;;;;4.10;3.75;;;2.20;99.90;;;;;;5053200;28;20204;-66
2023/10/17 02:20:45;;;;;;;5.82;3.95;;;2.10;99.90;;;;;;5053094;28;20240;-66
2023/10/17 02:23:19;;;;;;;3.85;3.45;;;2.10;99.90;;;;;;5053116;28;20202;-66
2023/10/17 02:25:46;;;;;;;3.63;3.42;;;2.10;99.90;;;;;;5053163;28;20646;-66
2023/10/17 02:28:13;;;;;;;4.82;4.43;;;2.00;99.90;;;;;;5052891;28;20790;-66
2023/10/17 02:30:39;;;;;;;4.07;3.78;;;2.00;99.90;;;;;;5053411;28;20320;-66
2023/10/17 02:33:17;;;;;;;6.05;3.20;;;2.00;99.90;;;;;;5053344;28;20266;-66
2023/10/17 02:35:53;;;;;;;4.53;4.05;;;2.00;99.90;;;;;;5053278;28;20202;-67
2023/10/17 02:38:20;;;;;;;4.43;4.03;;;2.00;99.90;;;;;;5052802;28;20297;-66
2023/10/17 02:40:53;;;;;;;4.38;3.95;;;1.90;99.90;;;;;;5052377;28;20222;-66
2023/10/17 02:43:20;;;;;;;7.25;4.50;;;1.90;99.90;;;;;;5052651;28;20302;-66
2023/10/17 02:45:47;;;;;;;12.82;5.88;;;1.90;99.90;;;;;;5052617;28;20313;-67
2023/10/17 02:48:25;;;;;;;3.13;2.92;;;1.90;99.90;;;;;;5052375;28;20214;-66
2023/10/17 02:50:59;;;;;;;5.40;4.95;;;2.00;99.90;;;;;;5052362;28;20266;-66
2023/10/17 02:53:26;;;;;;;5.38;3.60;;;2.00;99.90;;;;;;5052845;28;20217;-66
2023/10/17 02:55:53;;;;;;;4.40;4.00;;;2.00;99.90;;;;;;5052171;28;20676;-66
2023/10/17 02:58:20;;;;;;;4.75;3.72;;;1.90;99.90;;;;;;5051909;28;20296;-66
2023/10/17 03:00:48;;;;;;;8.80;4.18;;;1.90;99.90;;;;;;5051443;28;20782;-66
2023/10/17 03:03:19;;;;;;;3.88;3.58;;;1.90;99.90;;;;;;5051405;28;20283;-66
2023/10/17 03:05:50;;;;;;;4.68;3.92;;;1.90;99.90;;;;;;5050953;28;20229;-66
2023/10/17 03:08:18;;;;;;;6.53;4.03;;;1.90;99.90;;;;;;5052261;28;20286;-67
2023/10/17 03:10:47;;;;;;;5.07;3.80;;;1.80;99.90;;;;;;5052276;28;20731;-66
2023/10/17 03:13:23;;;;;;;8.50;3.95;;;1.90;99.90;;;;;;5052362;28;20208;-66
2023/10/17 03:15:54;;;;;;;3.88;3.58;;;1.90;99.90;;;;;;5052277;28;20204;-66
2023/10/17 03:18:22;;;;;;;4.05;3.75;;;1.90;99.90;;;;;;5051973;28;20824;-66
2023/10/17 03:20:52;;;;;;;4.47;4.13;;;1.90;99.90;;;;;;5051484;28;20567;-66
2023/10/17 03:23:20;;;;;;;4.65;3.83;;;1.90;99.90;;;;;;5052199;28;20307;-66
2023/10/17 03:25:47;;;;;;;3.75;3.45;;;1.90;99.90;;;;;;5051417;28;20317;-66
2023/10/17 03:28:15;;;;;;;4.57;4.18;;;1.90;99.90;;;;;;5051451;28;20296;-66
2023/10/17 03:30:42;;;;;;;3.85;3.55;;;1.90;99.90;;;;;;5051953;28;20873;-66
2023/10/17 03:33:13;;;;;;;6.13;3.97;;;1.90;99.90;;;;;;5051940;28;20727;-67
2023/10/17 03:36:03;;;;;;;4.85;4.55;;;1.90;99.90;;;;;;5051354;28;20479;-67
2023/10/17 03:38:32;;;;;;;7.13;4.70;;;2.00;99.90;;;;;;5051521;28;20206;-66
2023/10/17 03:41:06;;;;;;;7.60;4.95;;;2.00;99.90;;;;;;5052129;28;20797;-66
2023/10/17 03:43:39;;;;;;;4.22;3.92;;;2.00;99.90;;;;;;5051859;28;20668;-66
2023/10/17 03:46:06;;;;;;;4.20;3.80;;;2.00;99.90;;;;;;5051844;28;20671;-66
2023/10/17 03:48:36;;;;;;;4.40;4.00;;;2.00;99.90;;;;;;5051445;28;20298;-66
2023/10/17 03:51:15;;;;;;;4.82;4.43;;;2.00;99.90;;;;;;5051601;28;20948;-66
2023/10/17 03:53:46;;;;;;;7.35;4.45;;;2.00;99.90;;;;;;5052067;28;20208;-66
2023/10/17 03:56:23;;;;;;;4.63;4.18;;;2.00;99.90;;;;;;5051755;28;20647;-67
2023/10/17 03:58:53;;;;;;;3.90;3.60;;;2.00;99.90;;;;;;5051374;28;20306;-65
2023/10/17 04:01:23;;;;;;;4.35;3.95;;;2.00;99.90;;;;;;5051479;28;20295;-66
2023/10/17 04:03:53;;;;;;;3.40;3.20;;;1.90;99.90;;;;;;5051679;28;20213;-65
2023/10/17 04:06:32;;;;;;;4.72;4.22;;;1.90;99.90;;;;;;5051479;28;20288;-66
2023/10/17 04:09:15;;;;;;;6.40;3.72;;;1.90;99.90;;;;;;5051228;28;20741;-66
2023/10/17 04:11:46;;;;;;;4.30;4.00;;;1.80;99.90;;;;;;5051227;28;20588;-67
2023/10/17 04:14:13;;;;;;;4.85;4.45;;;1.90;99.90;;;;;;5051229;28;20202;-66
2023/10/17 04:16:40;;;;;;;7.00;4.35;;;1.80;99.90;;;;;;5051135;28;20206;-66
2023/10/17 04:19:16;;;;;;;4.60;4.00;;;1.80;99.90;;;;;;5050513;28;20697;-66
2023/10/17 04:21:49;;;;;;;5.43;4.57;;;1.90;99.90;;;;;;5051006;28;20210;-66
2023/10/17 04:24:26;;;;;;;4.93;4.30;;;1.90;99.90;;;;;;5051040;28;20225;-66
2023/10/17 04:27:05;;;;;;;5.47;4.07;;;2.00;99.90;;;;;;5051170;28;20232;-66
2023/10/17 04:29:32;;;;;;;5.13;4.72;;;2.00;99.90;;;;;;5050907;28;20703;-67
2023/10/17 04:32:01;;;;;;;5.07;4.57;;;2.10;99.90;;;;;;5050780;28;20279;-66
2023/10/17 04:34:28;;;;;;;9.77;4.53;;;2.10;99.90;;;;;;5050970;28;20775;-66
2023/10/17 04:36:56;;;;;;;4.72;4.10;;;2.10;99.90;;;;;;5050417;28;20284;-66
2023/10/17 04:39:35;;;;;;;5.70;3.78;;;2.10;99.90;;;;;;5049999;28;20232;-66
2023/10/17 04:42:05;;;;;;;5.25;4.18;;;2.10;99.90;;;;;;5050867;28;20210;-66
2023/10/17 04:44:36;;;;;;;4.18;3.88;;;2.10;99.90;;;;;;5050377;28;20207;-67
2023/10/17 04:49:53;;;;;;;4.47;4.07;;;2.10;99.90;;;;;;5054130;28;20225;-67
2023/10/17 04:52:21;;;;;;;6.25;5.28;;;2.10;99.90;;;;;;5055030;28;20260;-66
2023/10/17 04:54:52;;;;;;;5.53;5.03;;;2.20;99.90;;;;;;5054988;28;20204;-66
2023/10/17 04:57:19;;;;;;;6.13;5.72;;;2.20;99.90;;;;;;5054908;28;20206;-67
2023/10/17 04:59:55;;;;;;;5.82;3.50;;;2.20;99.90;;;;;;5054223;28;20245;-67
2023/10/17 06:16:53;;;;;;;4.88;4.45;;;2.60;99.90;;;;;;5014521;28;20202;-64
2023/10/17 06:19:24;;;;;;;5.47;4.97;;;2.70;99.90;;;;;;5014361;28;20209;-64
2023/10/17 06:26:03;;;;;;;5.28;4.82;;;2.70;99.90;;;;;;5014373;28;20299;-64
2023/10/17 06:30:33;;;;;;;4.30;4.00;;;2.80;99.90;;;;;;5014199;28;20213;-64
2023/10/17 06:35:54;;;;;;;5.00;4.60;;;2.80;99.90;;;;;;4998679;28;20211;-64
2023/10/17 06:38:27;;;;;;;9.75;4.72;;;2.90;99.90;;;;;;5013960;28;20226;-64
2023/10/17 06:40:54;;;;;;;6.90;6.50;;;3.00;99.90;;;;;;5014290;28;20203;-64
2023/10/17 06:43:29;;;;;;;7.82;7.15;;;3.00;99.90;;;;;;5013948;28;20282;-64
2023/10/17 06:46:05;;;;;;;6.40;5.88;;;3.00;99.90;;;;;;5013967;28;20242;-64
2023/10/17 06:48:36;;;;;;;6.13;5.53;;;3.10;99.90;;;;;;5013590;28;20223;-64
2023/10/17 06:51:29;;;;;;;6.13;5.63;;;3.20;99.90;;;;;;5014138;28;20643;-64
2023/10/17 06:54:05;;;;;;;5.90;5.40;;;3.20;99.90;;;;;;5014452;28;20225;-64
2023/10/17 06:56:38;;;;;;;5.88;5.40;;;3.20;99.90;;;;;;5014365;28;20268;-64
2023/10/17 06:59:14;;;;;;;7.40;6.70;;;3.30;99.90;;;;;;5013708;28;20739;-64
2023/10/17 07:01:42;;;;;;;6.75;6.13;;;3.30;99.90;;;;;;5014514;28;20682;-64
2023/10/17 07:04:11;;;;;;;7.88;6.68;;;3.40;99.90;;;;;;5013689;28;20223;-64
2023/10/17 07:06:39;;;;;;;8.30;6.70;;;3.40;99.90;;;;;;5013905;28;20636;-64
2023/10/17 07:09:16;;;;;;;6.43;5.93;;;3.50;99.90;;;;;;5013422;28;20207;-64
2023/10/17 07:11:47;;;;;;;6.13;5.50;;;3.50;99.90;;;;;;5013419;28;20337;-64
2023/10/17 07:14:23;;;;;;;6.97;6.40;;;3.60;99.90;;;;;;5013226;28;20231;-64
2023/10/17 07:17:00;;;;;;;8.75;6.75;;;3.60;99.90;;;;;;5013607;28;20892;-65
2023/10/17 07:22:14;;;;;;;7.55;6.85;;;3.70;99.90;;;;;;5013089;28;20837;-64
2023/10/17 07:24:44;;;;;;;8.10;6.82;;;3.80;99.90;;;;;;5013227;28;20231;-65
2023/10/17 07:27:21;;;;;;;6.22;5.63;;;3.90;99.90;;;;;;5013313;28;20224;-64
2023/10/17 07:29:58;;;;;;;6.70;5.50;;;4.00;99.90;;;;;;5011638;28;20210;-64
2023/10/17 07:32:32;;;;;;;5.95;5.45;;;4.10;99.90;;;;;;5007263;28;20203;-64
2023/10/17 07:35:01;;;;;;;7.63;6.93;;;4.20;99.90;;;;;;5012127;28;20672;-64
2023/10/17 07:37:33;;;;;;;6.65;6.05;;;4.30;99.90;;;;;;5011501;28;20195;-64
2023/10/17 07:42:56;;;;;;;6.25;5.65;;;4.30;99.90;;;;;;5148937;27;20607;-63
2023/10/17 07:45:23;;;;;;;6.78;5.55;;;4.40;99.90;;;;;;5129086;27;20202;-63
2023/10/17 07:47:54;;;;;;;11.18;7.45;;;4.40;99.90;;;;;;5128645;27;20208;-63
2023/10/17 07:50:25;;;;;;;9.40;7.85;;;4.50;99.90;;;;;;5128912;28;20583;-63
2023/10/17 07:52:59;;;;;;;7.20;6.60;;;4.70;99.90;;;;;;5128844;28;20199;-64
2023/10/17 07:55:36;;;;;;;8.05;7.38;;;4.70;99.90;;;;;;5123434;27;20253;-64
2023/10/17 07:58:09;;;;;;;7.55;6.85;;;4.90;99.90;;;;;;5128301;28;20287;-63
2023/10/17 08:00:37;;;;;;;18.05;6.53;;;5.00;99.90;;;;;;5129226;27;20204;-64
2023/10/17 08:03:09;;;;;;;7.57;6.78;;;5.20;99.90;;;;;;5128357;28;20254;-63
2023/10/17 08:05:44;;;;;;;7.00;6.30;;;5.30;99.90;;;;;;5129018;27;20282;-63
2023/10/17 08:08:14;;;;;;;6.72;6.00;;;5.40;99.90;;;;;;5124504;28;20728;-64
2023/10/17 08:10:45;;;;;;;5.97;5.47;;;5.60;99.90;;;;;;5129223;28;20218;-64
2023/10/17 08:13:14;;;;;;;6.20;5.70;;;5.80;99.90;;;;;;5118412;28;20200;-64
2023/10/17 08:15:46;;;;;;;5.80;5.15;;;5.90;99.90;;;;;;5128977;28;20200;-63
2023/10/17 08:18:15;;;;;;;7.70;5.63;;;6.10;99.90;;;;;;5128335;28;20215;-64
2023/10/17 08:21:32;;;;;;;6.05;5.47;;;6.20;99.90;;;;;;5128417;27;20231;-63
2023/10/17 08:23:41;;;;;;;6.00;5.47;;;6.30;99.90;;;;;;5125013;28;20869;-63
2023/10/17 08:26:11;;;;;;;5.57;5.07;;;6.40;99.90;;;;;;5128401;28;20226;-64
2023/10/17 08:28:50;;;;;;;5.15;4.75;;;6.50;99.90;;;;;;5127755;27;20200;-63
2023/10/17 08:31:23;;;;;;;5.45;4.97;;;6.60;99.90;;;;;;5121546;28;20200;-64
2023/10/17 08:33:57;;;;;;;5.30;4.80;;;6.70;99.90;;;;;;5123985;28;20231;-64
2023/10/17 08:36:41;;;;;;;5.65;5.05;;;6.80;99.90;;;;;;5128899;28;20199;-63
2023/10/17 08:39:26;;;;;;;5.05;4.60;;;6.90;99.90;;;;;;5129181;27;20204;-63
2023/10/17 08:41:53;;;;;;;5.75;5.10;;;7.00;99.90;;;;;;5127780;28;20732;-63
2023/10/17 08:44:22;;;;;;;5.35;4.93;;;7.10;99.90;;;;;;5127490;28;20220;-64
2023/10/17 08:46:50;;;;;;;5.20;4.70;;;7.20;99.90;;;;;;5128358;28;20632;-63
2023/10/17 08:49:17;;;;;;;10.07;4.18;;;7.30;99.90;;;;;;5127075;28;20202;-64
2023/10/17 08:51:43;;;;;;;4.97;4.68;;;7.40;99.90;;;;;;5128265;27;20206;-64
2023/10/17 08:54:12;;;;;;;3.85;3.40;;;7.50;99.90;;;;;;5115419;28;20256;-64
2023/10/17 08:56:40;;;;;;;5.68;4.85;;;7.50;99.90;;;;;;5114702;28;20219;-63
2023/10/17 08:59:11;;;;;;;5.00;4.50;;;7.60;99.90;;;;;;5114500;28;20295;-64
2023/10/17 09:01:59;;;;;;;4.30;4.00;;;7.70;99.90;;;;;;5114239;28;20224;-64
2023/10/17 09:04:32;;;;;;;5.82;4.63;;;7.70;99.90;;;;;;5114571;28;20277;-64
2023/10/17 09:06:59;;;;;;;3.90;3.58;;;7.80;99.90;;;;;;5114271;28;20200;-64
2023/10/17 09:09:29;;;;;;;5.03;4.53;;;7.90;99.90;;;;;;5113522;28;20197;-65
2023/10/17 09:14:44;;;;;;;6.05;4.07;;;8.10;99.90;;;;;;5114337;28;20227;-65
2023/10/17 09:17:16;;;;;;;3.90;3.55;;;8.20;99.90;;;;;;5114510;28;20208;-65
2023/10/17 09:19:50;;;;;;;5.10;4.70;;;8.30;99.90;;;;;;5113840;28;20215;-65
2023/10/17 09:22:20;;;;;;;4.35;3.95;;;8.40;99.90;;;;;;5113824;28;20227;-65
2023/10/17 09:24:49;;;;;;;4.95;4.43;;;8.40;99.90;;;;;;5113670;28;20234;-65
2023/10/17 09:27:17;;;;;;;4.40;4.10;;;8.50;99.90;;;;;;5113937;28;20212;-65
2023/10/17 09:29:49;;;;;;;4.20;3.80;;;8.50;99.90;;;;;;5115419;27;20291;-65
2023/10/17 09:32:35;;;;;;;7.15;4.80;;;8.60;99.90;;;;;;5115100;27;20246;-65
2023/10/17 09:35:13;;;;;;;4.63;4.20;;;8.70;99.90;;;;;;5112179;27;20256;-65
2023/10/17 09:37:42;;;;;;;4.63;4.22;;;8.70;99.90;;;;;;5115212;27;20208;-64
2023/10/17 09:40:13;;;;;;;4.30;4.00;;;8.80;99.90;;;;;;5126079;27;20239;-64
2023/10/17 09:42:44;;;;;;;4.28;3.95;;;8.80;99.90;;;;;;5112166;28;20263;-65
2023/10/17 09:45:11;;;;;;;4.43;3.83;;;8.90;99.90;;;;;;5115620;27;20303;-65
2023/10/17 09:47:44;;;;;;;4.70;4.40;;;8.90;99.90;;;;;;5115786;27;20287;-65
2023/10/17 09:50:13;;;;;;;4.93;4.50;;;9.00;99.90;;;;;;5105937;27;20208;-65
2023/10/17 09:52:41;;;;;;;4.20;3.80;;;9.00;99.90;;;;;;5122021;27;20204;-65
2023/10/17 09:55:13;;;;;;;5.65;4.85;;;9.10;99.90;;;;;;5127177;27;20467;-65
2023/10/17 09:57:44;;;;;;;5.40;4.90;;;9.20;99.90;;;;;;5115345;27;20210;-65
2023/10/17 10:00:18;;;;;;;3.25;3.00;;;9.20;99.90;;;;;;5125508;27;20443;-64
2023/10/17 10:02:49;;;;;;;3.40;3.10;;;9.30;99.90;;;;;;5112095;28;20231;-65
2023/10/17 10:05:24;;;;;;;4.13;3.83;;;9.30;99.90;;;;;;5123527;27;20255;-65
2023/10/17 10:07:51;;;;;;;4.40;4.00;;;9.40;99.90;;;;;;5100165;27;20445;-65
2023/10/17 10:10:55;;;;;;;5.07;4.57;;;9.40;99.90;;;;;;5124714;27;20250;-64
2023/10/17 10:13:24;;;;;;;6.90;3.93;;;9.50;99.90;;;;;;5129397;27;20513;-65
2023/10/17 10:15:53;;;;;;;5.00;3.90;;;9.60;99.90;;;;;;5116453;27;20450;-65
2023/10/17 10:18:58;;;;;;;3.60;3.27;;;9.60;99.90;;;;;;5123836;27;20871;-65
2023/10/17 10:21:57;;;;;;;4.00;3.67;;;9.60;99.90;;;;;;5128617;27;20437;-65
2023/10/17 10:24:27;;;;;;;4.97;3.97;;;9.70;99.90;;;;;;5101123;28;20478;-65
2023/10/17 10:27:24;;;;;;;7.33;3.80;;;9.80;99.90;;;;;;5111786;28;20932;-65
2023/10/17 10:29:53;;;;;;;5.20;3.87;;;9.80;99.90;;;;;;5105780;28;20446;-65
2023/10/17 10:32:34;;;;;;;4.27;3.93;;;9.90;99.90;;;;;;5120155;27;20464;-65
2023/10/17 10:35:05;;;;;;;3.90;3.60;;;10.00;99.90;;;;;;5118018;27;20493;-65
2023/10/17 10:37:33;;;;;;;3.73;3.47;;;10.00;99.90;;;;;;5110919;27;20442;-64
2023/10/17 10:40:11;;;;;;;4.57;4.07;;;10.00;99.90;;;;;;5126205;27;20449;-65
2023/10/17 10:42:48;;;;;;;3.80;3.60;;;10.10;99.90;;;;;;5122109;27;20856;-65
2023/10/17 10:45:31;;;;;;;3.60;3.40;;;10.10;99.90;;;;;;5115967;27;21063;-65
2023/10/17 10:47:58;;;;;;;4.00;3.70;;;10.10;99.90;;;;;;5101528;27;20448;-64
2023/10/17 10:50:29;;;;;;;3.97;3.67;;;10.20;99.90;;;;;;5123369;27;20521;-65
2023/10/17 10:52:58;;;;;;;3.90;3.53;;;10.20;99.90;;;;;;5125086;27;20445;-65
2023/10/17 10:55:26;;;;;;;4.10;3.50;;;10.20;99.90;;;;;;5115740;27;20819;-65
2023/10/17 10:57:53;;;;;;;4.50;4.10;;;10.20;99.90;;;;;;5128169;27;20439;-64
2023/10/17 11:00:20;;;;;;;5.23;3.80;;;10.10;99.90;;;;;;5119238;27;20942;-65
2023/10/17 11:02:47;;;;;;;3.53;3.13;;;10.20;99.90;;;;;;5119201;27;20560;-65
2023/10/17 11:05:15;;;;;;;4.40;3.07;;;10.20;99.90;;;;;;5127226;27;20461;-65
2023/10/17 11:07:44;;;;;;;4.40;2.90;;;10.20;99.90;;;;;;5114814;27;20860;-65
2023/10/17 11:10:13;;;;;;;3.83;3.53;;;10.20;99.90;;;;;;5124894;27;20453;-65
2023/10/17 11:12:40;;;;;;;6.67;3.37;;;10.30;99.90;;;;;;5122326;27;20441;-65
2023/10/17 11:15:14;;;;;;;3.33;3.07;;;10.30;99.90;;;;;;5116635;27;20461;-65
2023/10/17 11:17:42;;;;;;;3.77;3.47;;;10.40;99.50;;;;;;5110855;28;20529;-65
2023/10/17 11:20:16;;;;;;;2.90;2.70;;;10.40;99.90;;;;;;5117676;27;20790;-65
2023/10/17 11:22:45;;;;;;;3.30;3.10;;;10.50;99.90;;;;;;5120057;27;21038;-64
2023/10/17 11:25:21;;;;;;;3.43;3.23;;;10.50;99.20;;;;;;5126532;27;20472;-65
2023/10/17 11:27:53;;;;;;;3.37;3.10;;;10.50;99.50;;;;;;5114510;27;20448;-65
2023/10/17 11:30:21;;;;;;;3.00;2.80;;;10.60;99.50;;;;;;5122935;27;20442;-65
2023/10/17 11:32:49;;;;;;;2.93;2.73;;;10.60;98.80;;;;;;5110163;28;20446;-65
2023/10/17 11:35:29;;;;;;;3.00;2.80;;;10.70;99.00;;;;;;5114333;28;21063;-64
2023/10/17 11:37:58;;;;;;;2.83;2.73;;;10.70;99.10;;;;;;5111957;28;20812;-65
2023/10/17 11:40:45;;;;;;;3.53;3.20;;;10.80;98.90;;;;;;5119600;27;20469;-65
2023/10/17 11:43:20;;;;;;;3.10;2.90;;;10.80;98.30;;;;;;5115697;28;20858;-64
2023/10/17 11:45:47;;;;;;;3.73;3.37;;;10.80;98.10;;;;;;5110547;28;20961;-64
2023/10/17 11:48:26;;;;;;;5.00;2.97;;;10.90;97.80;;;;;;5123798;28;20449;-65
2023/10/17 11:51:07;;;;;;;3.00;2.80;;;10.90;98.00;;;;;;5114503;28;21003;-65
2023/10/17 11:53:37;;;;;;;3.07;2.87;;;11.00;97.90;;;;;;5112174;28;20454;-65
2023/10/17 11:56:05;;;;;;;2.93;2.70;;;11.00;97.50;;;;;;5124653;28;20450;-64
2023/10/17 11:58:33;;;;;;;2.60;2.40;;;11.00;97.70;;;;;;5119990;28;20442;-65
2023/10/17 12:01:00;;;;;;;3.23;2.97;;;11.00;97.20;;;;;;5116138;28;20919;-64
2023/10/17 12:03:27;;;;;;;3.77;2.80;;;11.10;97.20;;;;;;5123502;28;20474;-65
2023/10/17 12:05:55;;;;;;;3.93;3.53;;;11.20;97.20;;;;;;5115255;28;20445;-65
2023/10/17 12:08:29;;;;;;;2.90;2.70;;;11.20;96.80;;;;;;5122368;27;20817;-64
2023/10/17 12:10:57;;;;;;;3.67;3.40;;;11.20;96.80;;;;;;5124222;28;20448;-65
2023/10/17 12:13:26;;;;;;;2.50;2.40;;;11.30;96.40;;;;;;5113642;28;20457;-65
2023/10/17 12:15:56;;;;;;;4.00;2.97;;;11.30;96.40;;;;;;5114247;28;20902;-65
2023/10/17 12:18:24;;;;;;;4.23;2.90;;;11.30;96.70;;;;;;5119213;28;20442;-65
2023/10/17 12:20:55;;;;;;;4.27;3.10;;;11.40;96.50;;;;;;5118576;27;20446;-65
2023/10/17 12:23:29;;;;;;;5.20;2.60;;;11.50;96.00;;;;;;5127111;28;21025;-65
2023/10/17 12:25:58;;;;;;;3.90;3.63;;;11.60;96.20;;;;;;5115472;28;20455;-65
2023/10/17 12:28:26;;;;;;;3.63;3.33;;;11.70;96.20;;;;;;5123697;27;20441;-64
2023/10/17 12:30:53;;;;;;;3.10;2.80;;;11.70;95.90;;;;;;5127367;27;20441;-65
2023/10/17 12:33:22;;;;;;;2.77;2.57;;;11.70;95.10;;;;;;5117742;27;20829;-65
2023/10/17 12:35:50;;;;;;;5.60;2.93;;;11.80;95.20;;;;;;5101768;27;20532;-65
2023/10/17 12:38:24;;;;;;;1.93;1.83;;;11.80;95.40;;;;;;5126435;27;20441;-64
2023/10/17 12:40:52;;;;;;;2.60;2.07;;;11.90;95.60;;;;;;5126925;27;20506;-65
2023/10/17 12:43:21;;;;;;;5.40;1.80;;;12.10;95.60;;;;;;5118012;27;20492;-65
2023/10/17 12:45:49;;;;;;;6.70;3.27;;;12.20;95.00;;;;;;5101456;27;20498;-65
2023/10/17 12:48:16;;;;;;;4.40;3.10;;;12.40;94.60;;;;;;5126660;27;20449;-65
2023/10/17 12:50:44;;;;;;;2.27;2.07;;;12.60;94.00;;;;;;5125790;27;20473;-65
2023/10/17 12:53:11;;;;;;;2.13;2.00;;;12.90;93.60;;;;;;5118740;27;20969;-66
2023/10/17 12:55:39;;;;;;;2.87;2.67;;;13.20;93.00;;;;;;5131600;27;21006;-65
2023/10/17 12:58:07;;;;;;;2.77;2.57;;;13.30;92.60;;;;;;5117351;27;20831;-65
2023/10/17 13:00:35;;;;;;;3.60;2.70;;;13.50;91.70;;;;;;5113822;28;20578;-65
2023/10/17 13:03:02;;;;;;;3.10;2.90;;;13.70;92.30;;;;;;5113404;28;20478;-65
2023/10/17 13:05:29;;;;;;;2.60;2.17;;;13.90;91.70;;;;;;5130541;27;20441;-65
2023/10/17 13:07:56;;;;;;;2.37;2.27;;;14.20;92.00;;;;;;5118791;27;20471;-65
2023/10/17 13:10:22;;;;;;;5.63;3.40;;;14.60;91.90;;;;;;5125798;27;20446;-65
2023/10/17 13:12:49;;;;;;;2.70;2.50;;;15.00;90.80;;;;;;5126370;27;20444;-65
2023/10/17 13:15:16;;;;;;;4.93;4.33;;;15.40;89.80;;;;;;5118245;27;20458;-64
2023/10/17 13:17:46;;;;;;;2.70;2.50;;;15.80;88.60;;;;;;5130840;27;20451;-65
2023/10/17 13:20:16;;;;;;;2.50;2.40;;;16.10;88.30;;;;;;5125936;27;21014;-64
2023/10/17 13:22:46;;;;;;;3.03;2.63;;;16.50;87.60;;;;;;5126000;27;20477;-65
2023/10/17 13:25:13;;;;;;;2.20;2.00;;;17.00;85.70;;;;;;5118457;27;21003;-65
2023/10/17 13:27:40;;;;;;;3.93;2.90;;;17.40;86.20;;;;;;5130628;27;20441;-65
2023/10/17 13:30:09;;;;;;;2.67;2.47;;;17.60;83.00;;;;;;5120451;27;20485;-65
2023/10/17 13:32:36;;;;;;;3.30;3.00;;;17.70;81.20;;;;;;5123781;27;20473;-64
2023/10/17 13:35:06;;;;;;;3.63;3.27;;;17.40;78.50;;;;;;5128119;27;20512;-64
2023/10/17 13:37:34;;;;;;;2.60;2.40;;;17.20;78.50;;;;;;5117073;27;20446;-65
2023/10/17 13:40:02;;;;;;;3.77;3.00;;;16.90;78.90;;;;;;5127903;27;20936;-65
2023/10/17 13:42:30;;;;;;;3.47;2.40;;;16.60;80.40;;;;;;5122728;27;20498;-65
2023/10/17 13:44:57;;;;;;;2.73;2.57;;;16.40;80.30;;;;;;5120139;27;20477;-64
2023/10/17 13:47:25;;;;;;;3.20;2.90;;;16.10;80.50;;;;;;5129420;27;20446;-64
2023/10/17 13:49:53;;;;;;;2.87;2.30;;;15.80;80.60;;;;;;5116980;27;20917;-64
2023/10/17 13:52:21;;;;;;;6.20;2.43;;;15.60;81.40;;;;;;5124951;27;20446;-64
2023/10/17 13:54:48;;;;;;;2.90;2.70;;;15.50;80.40;;;;;;5124773;27;20465;-64
2023/10/17 13:57:16;;;;;;;4.23;3.87;;;15.30;81.00;;;;;;5116926;27;20438;-64
2023/10/17 13:59:47;;;;;;;2.57;2.37;;;15.20;80.40;;;;;;5129327;27;20460;-64
2023/10/17 14:02:17;;;;;;;2.10;2.00;;;15.20;81.50;;;;;;5120438;27;20567;-65
2023/10/17 14:04:44;;;;;;;1.73;1.63;;;15.30;80.60;;;;;;5121126;27;20583;-64
2023/10/17 14:07:13;;;;;;;2.67;1.90;;;15.50;81.50;;;;;;5128206;27;20470;-65
2023/10/17 14:09:41;;;;;;;2.33;1.90;;;15.80;79.50;;;;;;5115568;27;20442;-64
2023/10/17 14:12:09;;;;;;;3.97;2.30;;;16.10;78.90;;;;;;5126297;27;20522;-64
2023/10/17 14:14:35;;;;;;;2.37;2.17;;;16.30;78.00;;;;;;5122996;27;20544;-64
2023/10/17 14:17:03;;;;;;;1.97;1.73;;;16.60;76.70;;;;;;5118559;27;20525;-64
2023/10/17 14:19:40;;;;;;;3.00;2.23;;;16.90;78.40;;;;;;5128772;27;21258;-64
2023/10/17 14:22:20;;;;;;;2.40;2.20;;;17.30;77.90;;;;;;5119098;27;20451;-64
2023/10/17 14:25:00;;;;;;;3.93;2.37;;;17.40;75.00;;;;;;5120206;27;20923;-64
2023/10/17 14:27:29;;;;;;;2.27;2.07;;;18.00;76.60;;;;;;5129507;27;20433;-64
2023/10/17 14:29:59;;;;;;;2.57;2.37;;;18.50;74.10;;;;;;5116909;27;20524;-64
2023/10/17 14:32:27;;;;;;;3.73;2.10;;;19.10;74.50;;;;;;5124059;27;20450;-64
2023/10/17 14:34:55;;;;;;;2.70;2.20;;;19.70;70.70;;;;;;5125461;27;20463;-65
2023/10/17 14:37:24;;;;;;;2.30;1.63;;;20.40;70.10;;;;;;5115792;27;20817;-65
2023/10/17 14:39:52;;;;;;;2.60;2.30;;;21.10;67.10;;;;;;5128880;27;20442;-65
2023/10/17 14:42:19;;;;;;;2.97;2.13;;;21.90;66.30;;;;;;5120174;27;20460;-65
2023/10/17 14:44:46;;;;;;;2.37;1.67;;;22.50;61.20;;;;;;5119679;27;20482;-65
2023/10/17 14:47:16;;;;;;;2.43;1.77;;;23.00;58.30;;;;;;5116284;27;20442;-65